Current | Forecast
Updated: 3:50 PM CEST on May 25, 2017
Observed at Skovde Flygplats, Sweden
Temperature 68°F
Humidity 40%
Dew Point 43°F
Wind NNW at 10 mph
Pressure 29.95 in (Falling)
Conditions Clear
Visibility 6.2 miles
UV N/A
Clouds
Yesterday's Maximum 72°F
Yesterday's Minimum 34°F approx.
Yesterday's Heating Degree Days 12 approx.
Sunrise4:20 AM CEST
Sunset9:44 PM CEST
Moon Rise4:51 AM CEST
Moon Set8:52 PM CEST
Moon PhaseMoon Phase
Waning Crescent
Raw METARMETAR ESGR 251350Z AUTO 33009KT 000V360 9999 NCD 20/06 Q1014


Monday
. High: 55° F.
Tuesday
. High: 53° F.
Wednesday
. High: 60° F.
Thursday
. High: 59° F.
Friday
. High: 50° F.
Saturday
. High: 51° F.
Sunday
. High: 57° F.
Monday
. High: 55° F.

Units: English | Metric

Find the Weather for any City, State or Zipcode, or Country:

U.S. State List | Severe Weather | Tropical Storms | Ski Conditions
United States | Canada | Central America | South America | Asia | Europe | Australia | Africa | Islands

Weather Underground

© Copyright 2017
The Weather Company, LLC